Time;durP1;ratioP1;P1;durP2;ratioP2;P2;SDS_P1;SDS_P2;PMS_P1;PMS_P2;Temp;Humidity;BMP_temperature;BMP_pressure;BME280_temperature;BME280_humidity;BME280_pressure;Samples;Min_cycle;Max_cycle;Signal;HPM_P1;HPM_P2
2021/08/09 00:06:17;;;;;;;14.79;9.09;;;;;;;17.31;64.73;99959.53;373345;141;881753;-60
2021/08/09 00:07:19;;;;;;;13.87;8.58;;;;;;;17.31;64.73;99959.53;370312;144;858641;-61
2021/08/09 00:08:21;;;;;;;13.35;8.55;;;;;;;17.30;65.08;99965.68;367801;144;857351;-62
2021/08/09 00:09:23;;;;;;;15.88;9.23;;;;;;;17.30;65.43;99967.42;366166;144;864919;-61
2021/08/09 00:10:27;;;;;;;17.95;9.62;;;;;;;17.30;65.43;99967.42;366206;144;857203;-62
2021/08/09 00:11:30;;;;;;;13.97;9.04;;;;;;;17.25;65.26;99964.98;366195;144;857157;-62
2021/08/09 00:12:31;;;;;;;13.87;9.46;;;;;;;17.25;65.75;99958.89;366373;144;857210;-62
2021/08/09 00:13:33;;;;;;;13.04;9.20;;;;;;;17.26;65.66;99971.06;367917;144;864969;-62
2021/08/09 00:14:38;;;;;;;14.72;9.34;;;;;;;17.25;65.79;99956.27;366359;144;864964;-62
2021/08/09 00:15:38;;;;;;;12.88;8.95;;;;;;;17.34;65.91;99969.02;365676;144;864845;-62
2021/08/09 00:16:41;;;;;;;14.07;8.72;;;;;;;17.43;66.02;99962.62;367410;144;866680;-61
2021/08/09 00:17:43;;;;;;;11.91;8.71;;;;;;;17.48;65.63;99955.45;366781;144;857281;-62
2021/08/09 00:18:48;;;;;;;13.23;9.09;;;;;;;17.54;65.56;99949.16;371635;144;866710;-61
2021/08/09 00:19:50;;;;;;;15.62;9.31;;;;;;;17.61;66.37;151230.28;367100;144;867274;-62
2021/08/09 00:20:53;;;;;;;12.32;8.85;;;;;;;;;;366124;144;857656;-62
2021/08/09 00:21:54;;;;;;;12.89;8.71;;;;;;;;;;367445;144;857248;-62
2021/08/09 00:22:56;;;;;;;12.83;8.52;;;;;;;;;;367304;144;859349;-62
2021/08/09 00:23:57;;;;;;;12.54;8.58;;;;;;;;;;366954;144;857379;-62
2021/08/09 00:24:59;;;;;;;13.08;8.59;;;;;;;;;;365380;146;857768;-60
2021/08/09 00:26:01;;;;;;;15.34;8.35;;;;;;;;;;365448;146;864966;-62
2021/08/09 00:27:02;;;;;;;12.14;8.82;;;;;;;;;;364246;147;857250;-61
2021/08/09 00:28:04;;;;;;;11.14;8.05;;;;;;;;;;362307;146;857252;-61
2021/08/09 00:29:05;;;;;;;13.29;9.04;;;;;;;;;;363983;146;865722;-62
2021/08/09 00:30:08;;;;;;;15.05;8.93;;;;;;;;;;364162;146;857274;-62
2021/08/09 00:31:10;;;;;;;18.75;9.19;;;;;;;;;;364493;146;857764;-62
2021/08/09 00:32:11;;;;;;;11.92;8.79;;;;;;;;;;365067;146;858233;-62
2021/08/09 00:33:13;;;;;;;14.97;9.15;;;;;;;;;;364477;147;857358;-62
2021/08/09 00:34:14;;;;;;;12.15;8.94;;;;;;;;;;364688;146;857374;-61
2021/08/09 00:35:16;;;;;;;14.24;8.69;;;;;;;;;;364355;147;857142;-61
2021/08/09 00:36:18;;;;;;;14.13;8.62;;;;;;;;;;364044;146;857060;-62
2021/08/09 00:37:20;;;;;;;18.62;9.50;;;;;;;;;;363542;146;857260;-62
2021/08/09 00:38:21;;;;;;;13.89;8.94;;;;;;;;;;363418;146;866895;-60
2021/08/09 00:39:23;;;;;;;12.98;8.69;;;;;;;;;;357712;150;859586;-61
2021/08/09 00:40:26;;;;;;;16.53;8.45;;;;;;;;;;351691;149;858973;-62
2021/08/09 00:41:27;;;;;;;13.61;8.09;;;;;;;;;;365245;146;857834;-61
2021/08/09 00:42:29;;;;;;;12.95;8.57;;;;;;;;;;367929;146;860170;-62
2021/08/09 00:43:30;;;;;;;14.26;8.84;;;;;;;;;;361137;147;858864;-61
2021/08/09 00:44:32;;;;;;;15.51;8.63;;;;;;;;;;357000;149;857723;-61
2021/08/09 00:45:34;;;;;;;14.59;8.96;;;;;;;;;;364790;146;857670;-61
2021/08/09 00:46:35;;;;;;;11.87;8.23;;;;;;;;;;360232;147;857113;-60
2021/08/09 00:47:37;;;;;;;10.61;7.81;;;;;;;;;;356548;149;857681;-62
2021/08/09 00:48:39;;;;;;;13.39;8.41;;;;;;;;;;364519;146;857325;-61
2021/08/09 00:49:40;;;;;;;11.50;8.12;;;;;;;;;;364889;147;857204;-62
2021/08/09 00:50:42;;;;;;;11.59;8.42;;;;;;;;;;365517;147;857372;-61
2021/08/09 00:51:43;;;;;;;13.85;8.49;;;;;;;;;;364435;146;857266;-61
2021/08/09 00:52:45;;;;;;;11.36;8.21;;;;;;;;;;365353;146;857315;-62
2021/08/09 00:53:47;;;;;;;11.65;7.81;;;;;;;;;;363366;147;860013;-61
2021/08/09 00:54:48;;;;;;;16.08;8.21;;;;;;;;;;363345;146;857870;-61
2021/08/09 00:55:52;;;;;;;11.13;8.03;;;;;;;;;;364089;146;857287;-61
2021/08/09 00:56:53;;;;;;;9.55;7.84;;;;;;;;;;366685;146;857242;-61
2021/08/09 00:57:55;;;;;;;14.82;8.14;;;;;;;;;;363075;146;857897;-62
2021/08/09 00:58:58;;;;;;;14.53;8.15;;;;;;;;;;364300;146;857173;-62
2021/08/09 01:00:00;;;;;;;11.31;9.03;;;;;;;;;;364937;147;857141;-61
2021/08/09 01:01:01;;;;;;;13.49;10.44;;;;;;;;;;364561;146;858998;-62
2021/08/09 01:02:03;;;;;;;12.96;10.49;;;;;;;;;;365816;146;857301;-61
2021/08/09 01:03:05;;;;;;;17.63;11.20;;;;;;;;;;363987;146;857667;-61
2021/08/09 01:04:08;;;;;;;17.19;11.67;;;;;;;;;;365504;146;857628;-61
2021/08/09 01:05:10;;;;;;;17.78;12.00;;;;;;;;;;365541;146;857268;-62
2021/08/09 01:06:14;;;;;;;16.21;10.18;;;;;;;;;;364641;146;861486;-61
2021/08/09 01:07:16;;;;;;;20.23;13.98;;;;;;;;;;361491;146;864867;-61
2021/08/09 01:08:31;;;;;;;20.11;15.63;;;;;;;;;;365332;146;857196;-60
2021/08/09 01:09:33;;;;;;;21.87;18.29;;;;;;;;;;364565;146;864895;-59
2021/08/09 01:10:37;;;;;;;28.74;21.81;;;;;;;;;;363211;147;857983;-61
2021/08/09 01:11:43;;;;;;;31.11;27.34;;;;;;;;;;363907;147;857132;-60
2021/08/09 01:12:50;;;;;;;46.24;31.76;;;;;;;;;;364007;147;857411;-61
2021/08/09 01:14:11;;;;;;;52.71;43.84;;;;;;;;;;363304;146;857403;-60
2021/08/09 01:15:15;;;;;;;53.96;44.44;;;;;;;;;;365205;147;858869;-59
2021/08/09 01:16:17;;;;;;;58.43;46.03;;;;;;;;;;363859;146;857270;-60
2021/08/09 01:17:19;;;;;;;58.49;48.11;;;;;;;;;;365110;146;857244;-61
2021/08/09 01:18:21;;;;;;;59.74;49.65;;;;;;;;;;362459;147;866512;-61
2021/08/09 01:19:40;;;;;;;61.42;50.32;;;;;;;;;;364826;147;857141;-62
2021/08/09 01:20:50;;;;;;;64.44;52.29;;;;;;;;;;365876;146;865703;-59
2021/08/09 01:21:53;;;;;;;74.56;61.68;;;;;;;;;;362697;146;858218;-61
2021/08/09 01:22:56;;;;;;;84.48;66.31;;;;;;;;;;364294;147;860447;-61
2021/08/09 01:24:18;;;;;;;78.34;63.46;;;;;;;;;;364510;146;857392;-60
2021/08/09 01:25:21;;;;;;;71.78;60.12;;;;;;;;;;361846;147;857325;-61
2021/08/09 01:26:25;;;;;;;77.79;63.13;;;;;;;;;;365573;147;857139;-61
2021/08/09 01:27:28;;;;;;;75.74;59.59;;;;;;;;;;365057;146;865057;-61
2021/08/09 01:28:30;;;;;;;58.93;49.44;;;;;;;;;;363735;147;857213;-61
2021/08/09 01:29:34;;;;;;;60.05;46.47;;;;;;;;;;361906;146;857252;-60
2021/08/09 01:30:37;;;;;;;67.75;55.09;;;;;;;;;;364567;146;858662;-60
2021/08/09 01:31:43;;;;;;;59.91;45.86;;;;;;;;;;365348;146;857734;-61
2021/08/09 01:32:45;;;;;;;54.29;43.28;;;;;;;;;;366349;146;865049;-60
2021/08/09 01:33:46;;;;;;;53.55;42.76;;;;;;;;;;363942;147;859759;-60
2021/08/09 01:34:48;;;;;;;59.44;49.89;;;;;;;;;;365955;146;857329;-60
2021/08/09 01:35:51;;;;;;;63.00;49.11;;;;;;;;;;364967;146;859065;-60
2021/08/09 01:36:54;;;;;;;67.45;53.49;;;;;;;;;;366491;146;858092;-61
2021/08/09 01:37:56;;;;;;;69.63;56.71;;;;;;;;;;363311;146;857200;-60
2021/08/09 01:38:58;;;;;;;75.56;56.25;;;;;;;;;;366684;146;858840;-60
2021/08/09 01:40:00;;;;;;;77.58;55.13;;;;;;;;;;364823;146;866257;-61
2021/08/09 01:41:02;;;;;;;73.30;56.17;;;;;;;;;;363108;147;857304;-60
2021/08/09 01:42:03;;;;;;;64.51;52.79;;;;;;;;;;356514;148;857303;-60
2021/08/09 01:43:05;;;;;;;66.46;52.44;;;;;;;;;;367303;146;857304;-61
2021/08/09 01:44:06;;;;;;;69.01;53.24;;;;;;;;;;366521;146;857256;-61
2021/08/09 01:45:08;;;;;;;71.71;55.32;;;;;;;;;;364382;146;858983;-61
2021/08/09 01:46:12;;;;;;;76.90;56.80;;;;;;;;;;364425;146;857387;-61
2021/08/09 01:47:13;;;;;;;81.00;59.71;;;;;;;;;;364353;147;857220;-61
2021/08/09 01:48:15;;;;;;;80.49;60.48;;;;;;;;;;365028;146;857980;-61
2021/08/09 01:49:16;;;;;;;82.93;61.83;;;;;;;;;;362898;147;865063;-60
2021/08/09 01:50:18;;;;;;;83.41;62.17;;;;;;;;;;365643;146;857251;-60
2021/08/09 01:51:20;;;;;;;82.66;61.04;;;;;;;;;;365481;146;857413;-61
2021/08/09 01:52:21;;;;;;;79.61;59.29;;;;;;;;;;363385;146;857326;-60
2021/08/09 01:53:23;;;;;;;76.11;55.08;;;;;;;;;;365299;147;857228;-61
2021/08/09 01:54:25;;;;;;;65.84;48.73;;;;;;;;;;363750;146;865820;-60
2021/08/09 01:55:27;;;;;;;63.64;49.41;;;;;;;;;;362848;148;858956;-60
2021/08/09 01:56:29;;;;;;;61.54;47.31;;;;;;;;;;361254;147;865302;-60
2021/08/09 01:57:30;;;;;;;64.32;45.74;;;;;;;;;;364697;146;857933;-61
2021/08/09 01:58:32;;;;;;;61.96;46.59;;;;;;;;;;362407;146;857315;-61
2021/08/09 01:59:33;;;;;;;57.61;44.86;;;;;;;;;;364921;146;857045;-60
2021/08/09 02:00:36;;;;;;;53.43;41.33;;;;;;;;;;364647;146;857640;-60
2021/08/09 02:01:39;;;;;;;55.31;41.25;;;;;;;;;;364670;147;857197;-60
2021/08/09 02:02:40;;;;;;;58.97;44.77;;;;;;;;;;365018;146;857581;-61
2021/08/09 02:03:42;;;;;;;57.26;43.95;;;;;;;;;;364973;146;865086;-61
2021/08/09 02:04:43;;;;;;;60.71;46.45;;;;;;;;;;362068;146;857444;-61
2021/08/09 02:05:45;;;;;;;63.09;49.76;;;;;;;;;;363976;146;857407;-61
2021/08/09 02:06:48;;;;;;;61.75;46.73;;;;;;;;;;362229;147;857416;-60
2021/08/09 02:07:49;;;;;;;58.39;45.01;;;;;;;;;;363270;148;857286;-59
2021/08/09 02:08:51;;;;;;;56.96;43.11;;;;;;;;;;363415;146;857349;-60
2021/08/09 02:09:52;;;;;;;58.79;44.04;;;;;;;;;;362927;146;858833;-61
2021/08/09 02:11:00;;;;;;;60.13;43.06;;;;;;;;;;362031;147;860047;-61
2021/08/09 02:12:03;;;;;;;61.93;42.82;;;;;;;;;;362308;146;857079;-60
2021/08/09 02:13:07;;;;;;;61.66;41.51;;;;;;;;;;362412;146;857630;-61
2021/08/09 02:14:08;;;;;;;58.43;43.10;;;;;;;;;;361543;147;860241;-61
2021/08/09 02:15:10;;;;;;;51.61;38.75;;;;;;;;;;361615;148;857141;-61
2021/08/09 02:16:13;;;;;;;53.96;38.35;;;;;;;;;;363555;147;859699;-60
2021/08/09 02:17:16;;;;;;;51.22;38.22;;;;;;;;;;362619;147;860273;-61
2021/08/09 02:18:31;;;;;;;53.48;39.51;;;;;;;;;;362289;148;859100;-61
2021/08/09 02:19:34;;;;;;;54.80;40.03;;;;;;;;;;359515;146;857256;-61
2021/08/09 02:20:37;;;;;;;51.21;38.11;;;;;;;;;;359849;147;857227;-61
2021/08/09 02:21:41;;;;;;;54.22;38.76;;;;;;;;;;361667;146;857013;-61
2021/08/09 02:22:44;;;;;;;49.36;37.90;;;;;;;;;;352301;151;857894;-61
2021/08/09 02:23:46;;;;;;;51.64;37.36;;;;;;;;;;346316;152;857466;-62
2021/08/09 02:24:50;;;;;;;52.14;36.21;;;;;;;;;;343235;153;857563;-61
2021/08/09 02:25:51;;;;;;;51.18;34.92;;;;;;;;;;353312;152;865619;-61
2021/08/09 02:26:55;;;;;;;48.88;37.39;;;;;;;;;;355055;149;859200;-62
2021/08/09 02:27:58;;;;;;;49.36;36.66;;;;;;;;;;353499;150;866339;-62
2021/08/09 02:29:02;;;;;;;48.78;37.23;;;;;;;;;;353605;150;857588;-62
2021/08/09 02:30:04;;;;;;;50.84;35.91;;;;;;;;;;350824;152;857723;-62
2021/08/09 02:31:06;;;;;;;49.09;35.55;;;;;;;;;;355315;150;865957;-61
2021/08/09 02:32:07;;;;;;;42.56;32.84;;;;;;;;;;355687;150;857680;-61
2021/08/09 02:33:09;;;;;;;42.24;29.02;;;;;;;;;;354630;151;860456;-61
2021/08/09 02:34:11;;;;;;;44.91;32.70;;;;;;;;;;352025;150;858765;-62
2021/08/09 02:35:15;;;;;;;46.11;32.15;;;;;;;;;;350058;150;865908;-62
2021/08/09 02:36:17;;;;;;;41.59;31.45;;;;;;;;;;350959;151;858876;-61
2021/08/09 02:37:18;;;;;;;42.58;30.49;;;;;;;;;;351145;151;857131;-62
2021/08/09 02:38:21;;;;;;;40.99;29.56;;;;;;;;;;350131;150;858617;-60
2021/08/09 02:39:22;;;;;;;41.68;29.17;;;;;;;;;;350535;150;865377;-61
2021/08/09 02:40:25;;;;;;;37.47;28.98;;;;;;;;;;350127;150;858689;-62
2021/08/09 02:41:26;;;;;;;41.36;30.30;;;;;;;;;;355645;150;859936;-61
2021/08/09 02:42:28;;;;;;;41.99;29.69;;;;;;;;;;353743;150;866791;-61
2021/08/09 02:43:30;;;;;;;39.36;27.74;;;;;;;;;;362793;146;865446;-62
2021/08/09 02:44:31;;;;;;;36.85;28.38;;;;;;;;;;360701;147;857268;-61
2021/08/09 02:45:33;;;;;;;41.07;28.49;;;;;;;;;;360073;147;866695;-62
2021/08/09 02:46:35;;;;;;;37.43;27.13;;;;;;;;;;361903;147;857239;-60
2021/08/09 02:47:37;;;;;;;35.58;26.26;;;;;;;;;;360713;148;857047;-61
2021/08/09 02:48:41;;;;;;;36.53;26.93;;;;;;;;;;361673;146;858988;-62
2021/08/09 02:49:46;;;;;;;39.88;27.76;;;;;;;;;;361818;147;857923;-62
2021/08/09 02:50:47;;;;;;;38.19;27.91;;;;;;;;;;363120;146;857250;-62
2021/08/09 02:51:49;;;;;;;37.92;27.82;;;;;;;;;;363357;146;864017;-62
2021/08/09 02:52:50;;;;;;;33.34;26.32;;;;;;;;;;362510;146;857476;-60
2021/08/09 02:53:52;;;;;;;36.22;27.28;;;;;;;;;;360492;146;857115;-61
2021/08/09 02:54:53;;;;;;;37.43;27.72;;;;;;;;;;363052;146;858836;-62
2021/08/09 02:55:56;;;;;;;36.20;26.63;;;;;;;;;;361611;146;858185;-62
2021/08/09 02:56:58;;;;;;;36.73;25.99;;;;;;;;;;353034;150;858394;-60
2021/08/09 02:58:06;;;;;;;34.20;26.83;;;;;;;;;;346829;153;866436;-60
2021/08/09 02:59:03;;;;;;;35.74;25.59;;;;;;;;;;351293;151;859499;-60
2021/08/09 03:00:05;;;;;;;35.14;24.89;;;;;;;;;;351188;151;859871;-60
2021/08/09 03:01:06;;;;;;;38.64;25.55;;;;;;;;;;349893;151;865292;-61
2021/08/09 03:02:08;;;;;;;33.10;24.13;;;;;;;;;;350027;150;858511;-59
2021/08/09 03:03:10;;;;;;;38.13;24.61;;;;;;;;;;352184;150;865410;-59
2021/08/09 03:04:13;;;;;;;36.21;23.69;;;;;;;;;;361468;146;857351;-59
2021/08/09 03:05:14;;;;;;;32.09;25.17;;;;;;;;;;361781;148;864744;-60
2021/08/09 03:06:16;;;;;;;34.77;25.13;;;;;;;;;;356195;147;857286;-60
2021/08/09 03:07:18;;;;;;;29.49;23.63;;;;;;;;;;359840;147;857795;-59
2021/08/09 03:08:20;;;;;;;33.79;25.07;;;;;;;;;;361879;146;857754;-59
2021/08/09 03:09:22;;;;;;;33.91;24.29;;;;;;;;;;363108;147;859004;-59
2021/08/09 03:10:24;;;;;;;32.55;24.50;;;;;;;;;;360979;146;858912;-59
2021/08/09 03:11:26;;;;;;;30.79;23.41;;;;;;;;;;361485;147;857220;-59
2021/08/09 03:12:27;;;;;;;29.40;22.28;;;;;;;;;;360944;146;857137;-60
2021/08/09 03:13:29;;;;;;;31.62;22.56;;;;;;;;;;361805;148;865375;-59
2021/08/09 03:14:31;;;;;;;27.16;20.89;;;;;;;;;;360572;147;857823;-60
2021/08/09 03:15:32;;;;;;;25.43;20.43;;;;;;;;;;362474;146;857200;-60
2021/08/09 03:16:34;;;;;;;25.80;19.56;;;;;;;;;;361236;147;857738;-60
2021/08/09 03:17:37;;;;;;;27.75;20.79;;;;;;;;;;361304;147;858129;-60
2021/08/09 03:18:39;;;;;;;29.28;21.76;;;;;;;;;;359282;147;859360;-59
2021/08/09 03:19:40;;;;;;;29.01;21.82;;;;;;;;;;351995;151;859908;-60
2021/08/09 03:20:42;;;;;;;34.73;23.55;;;;;;;;;;351306;150;857339;-61
2021/08/09 03:21:51;;;;;;;27.43;22.43;;;;;;;;;;348478;151;858481;-59
2021/08/09 03:22:52;;;;;;;30.44;22.76;;;;;;;;;;348909;151;859009;-60
2021/08/09 03:23:54;;;;;;;28.48;22.39;;;;;;;;;;349017;151;857954;-60
2021/08/09 03:24:56;;;;;;;31.90;22.92;;;;;;;;;;346672;151;859000;-59
2021/08/09 03:25:57;;;;;;;34.49;22.86;;;;;;;;;;348532;152;857154;-61
2021/08/09 03:26:59;;;;;;;31.51;22.96;;;;;;;;;;351370;151;864521;-59
2021/08/09 03:28:02;;;;;;;31.83;23.03;;;;;;;;;;348162;151;864964;-62
2021/08/09 03:29:04;;;;;;;28.76;23.02;;;;;;;;;;350102;150;865070;-60
2021/08/09 03:30:07;;;;;;;32.21;23.93;;;;;;;;;;349544;151;860898;-60
2021/08/09 03:31:08;;;;;;;27.86;21.17;;;;;;;;;;350092;150;857340;-61
2021/08/09 03:32:10;;;;;;;26.10;19.68;;;;;;;;;;349458;150;858596;-60
2021/08/09 03:33:11;;;;;;;23.36;18.57;;;;;;;;;;349108;150;865039;-61
2021/08/09 03:34:13;;;;;;;22.59;18.02;;;;;;;;;;348314;150;857214;-61
2021/08/09 03:35:14;;;;;;;24.85;17.96;;;;;;;;;;348750;150;857250;-61
2021/08/09 03:36:18;;;;;;;23.27;18.37;;;;;;;;;;351025;150;857850;-61
2021/08/09 03:37:19;;;;;;;29.71;18.62;;;;;;;;;;346370;151;857762;-60
2021/08/09 03:38:21;;;;;;;26.11;18.88;;;;;;;;;;349286;151;866633;-61
2021/08/09 03:39:22;;;;;;;26.27;18.37;;;;;;;;;;351353;151;857298;-61
2021/08/09 03:40:24;;;;;;;27.22;18.63;;;;;;;;;;349413;150;857084;-61
2021/08/09 03:41:26;;;;;;;26.18;18.11;;;;;;;;;;350868;151;857034;-60
2021/08/09 03:42:28;;;;;;;23.85;16.39;;;;;;;;;;348799;151;858190;-60
2021/08/09 03:43:29;;;;;;;22.36;15.60;;;;;;;;;;349407;150;866156;-61
2021/08/09 03:44:31;;;;;;;24.79;16.74;;;;;;;;;;353202;151;858614;-61
2021/08/09 03:45:32;;;;;;;25.64;19.89;;;;;;;;;;351154;150;861203;-61
2021/08/09 03:46:34;;;;;;;26.45;19.65;;;;;;;;;;353173;150;858136;-62
2021/08/09 03:47:36;;;;;;;24.96;19.72;;;;;;;;;;349855;151;858991;-60
2021/08/09 03:48:37;;;;;;;22.63;18.84;;;;;;;;;;354068;151;857440;-60
2021/08/09 03:49:39;;;;;;;23.24;18.25;;;;;;;;;;355451;149;857823;-60
2021/08/09 03:50:42;;;;;;;22.24;17.43;;;;;;;;;;348306;152;857361;-59
2021/08/09 03:51:43;;;;;;;22.06;16.60;;;;;;;;;;352906;151;865598;-61
2021/08/09 03:52:50;;;;;;;17.84;15.34;;;;;;;;;;352443;150;857878;-61
2021/08/09 03:53:51;;;;;;;21.15;15.83;;;;;;;;;;352405;150;864845;-62
2021/08/09 03:54:53;;;;;;;17.94;15.12;;;;;;;;;;355704;150;859225;-62
2021/08/09 03:55:54;;;;;;;22.98;15.81;;;;;;;;;;353901;151;857766;-61
2021/08/09 03:56:56;;;;;;;20.44;15.01;;;;;;;;;;354032;150;859315;-61
2021/08/09 03:57:58;;;;;;;18.19;14.49;;;;;;;;;;353776;150;866270;-61
2021/08/09 03:58:59;;;;;;;19.28;14.77;;;;;;;;;;353610;151;858669;-62
2021/08/09 04:00:03;;;;;;;23.22;15.29;;;;;;;;;;353807;150;858876;-61
2021/08/09 04:01:06;;;;;;;17.96;13.66;;;;;;;;;;353343;150;864939;-63
2021/08/09 04:02:14;;;;;;;19.14;12.93;;;;;;;;;;351088;151;867537;-63
2021/08/09 04:03:12;;;;;;;18.96;11.79;;;;;;;;;;350464;151;859100;-62
2021/08/09 04:04:13;;;;;;;19.99;13.11;;;;;;;;;;349741;153;857371;-62
2021/08/09 04:05:15;;;;;;;17.79;13.84;;;;;;;;;;351310;152;865485;-64
2021/08/09 04:06:20;;;;;;;20.58;13.87;;;;;;;;;;349854;153;865403;-64
2021/08/09 04:07:22;;;;;;;16.41;13.37;;;;;;;;;;349619;151;857740;-64
2021/08/09 04:08:23;;;;;;;16.54;13.46;;;;;;;;;;346641;153;857735;-63
2021/08/09 04:09:25;;;;;;;19.92;13.31;;;;;;;;;;346957;154;857414;-63
2021/08/09 04:10:28;;;;;;;15.71;12.66;;;;;;;;;;344260;154;857266;-65
2021/08/09 04:11:30;;;;;;;18.41;12.58;;;;;;;;;;346789;153;857508;-61
2021/08/09 04:12:31;;;;;;;18.74;12.43;;;;;;;;;;346712;153;857435;-60
2021/08/09 04:13:36;;;;;;;15.23;12.21;;;;;;;;;;346816;153;857321;-60
2021/08/09 04:14:37;;;;;;;16.16;12.62;;;;;;;;;;347358;153;857302;-65
2021/08/09 04:15:39;;;;;;;14.51;12.26;;;;;;;;;;346757;153;857228;-61
2021/08/09 04:16:43;;;;;;;16.06;11.88;;;;;;;;;;346886;153;864018;-62
2021/08/09 04:17:44;;;;;;;18.61;11.91;;;;;;;;;;347568;154;859222;-63
2021/08/09 04:18:46;;;;;;;19.34;10.99;;;;;;;;;;345586;153;864752;-64
2021/08/09 04:19:47;;;;;;;14.51;11.49;;;;;;;;;;349328;152;857460;-63
2021/08/09 04:20:49;;;;;;;14.11;10.93;;;;;;;;;;342925;156;857149;-63
2021/08/09 04:21:51;;;;;;;16.92;11.20;;;;;;;;;;347050;152;857374;-63
2021/08/09 04:22:52;;;;;;;18.54;11.46;;;;;;;;;;342860;155;857277;-62
2021/08/09 04:23:54;;;;;;;16.76;12.26;;;;;;;;;;350415;152;857388;-61
2021/08/09 04:24:55;;;;;;;14.96;11.07;;;;;;;;;;348116;153;858947;-62
2021/08/09 04:25:57;;;;;;;12.52;10.94;;;;;;;;;;344090;153;859730;-63
2021/08/09 04:26:59;;;;;;;17.05;11.13;;;;;;;;;;343669;155;865058;-61
2021/08/09 04:28:01;;;;;;;14.02;10.57;;;;;;;;;;345438;152;858340;-61
2021/08/09 04:29:02;;;;;;;17.55;10.93;;;;;;;;;;345876;152;866779;-63
2021/08/09 04:30:04;;;;;;;13.09;10.12;;;;;;;;;;343116;153;857400;-61
2021/08/09 04:31:06;;;;;;;14.33;10.13;;;;;;;;;;350083;153;866310;-63
2021/08/09 04:32:13;;;;;;;15.22;10.55;;;;;;;;;;342817;153;859084;-62
2021/08/09 04:33:14;;;;;;;14.75;9.19;;;;;;;;;;344836;153;859077;-62
2021/08/09 04:34:16;;;;;;;12.69;9.13;;;;;;;;;;349791;153;857629;-61
2021/08/09 04:35:17;;;;;;;11.04;8.92;;;;;;;;;;341767;153;858771;-60
2021/08/09 04:36:19;;;;;;;10.91;8.56;;;;;;;;;;343327;153;857208;-60
2021/08/09 04:37:22;;;;;;;13.44;9.37;;;;;;;;;;349144;152;857258;-60
2021/08/09 04:38:24;;;;;;;13.78;9.07;;;;;;;;;;349322;152;864998;-60
2021/08/09 04:39:26;;;;;;;14.86;8.99;;;;;;;;;;343954;153;860007;-60
2021/08/09 04:40:30;;;;;;;15.05;9.16;;;;;;;;;;344873;153;857231;-61
2021/08/09 04:41:31;;;;;;;13.39;9.23;;;;;;;;;;348307;153;865094;-60
2021/08/09 04:42:33;;;;;;;14.78;9.93;;;;;;;;;;342378;154;859864;-62
2021/08/09 04:43:35;;;;;;;11.84;9.04;;;;;;;;;;344173;153;857248;-59
2021/08/09 04:44:37;;;;;;;16.29;9.71;;;;;;;;;;346821;154;857240;-60
2021/08/09 04:45:39;;;;;;;12.88;9.56;;;;;;;;;;351322;152;857968;-61
2021/08/09 04:46:42;;;;;;;15.92;9.69;;;;;;;;;;349303;152;864960;-61
2021/08/09 04:47:44;;;;;;;17.22;9.24;;;;;;;;;;349350;151;857473;-60
2021/08/09 04:48:45;;;;;;;14.07;9.45;;;;;;;;;;348351;153;857457;-60
2021/08/09 04:49:47;;;;;;;10.93;9.10;;;;;;;;;;349510;153;859025;-60
2021/08/09 04:50:50;;;;;;;11.49;9.78;;;;;;;;;;343538;154;857207;-60
2021/08/09 04:51:52;;;;;;;12.91;9.04;;;;;;;;;;349757;153;865650;-61
2021/08/09 04:52:54;;;;;;;9.93;8.26;;;;;;;;;;345047;155;857206;-60
2021/08/09 04:53:55;;;;;;;10.69;8.81;;;;;;;;;;346248;154;857202;-61
2021/08/09 04:54:57;;;;;;;13.80;9.22;;;;;;;;;;346200;152;857223;-61
2021/08/09 04:55:58;;;;;;;13.06;8.92;;;;;;;;;;343025;155;857508;-61
2021/08/09 04:57:00;;;;;;;13.11;8.59;;;;;;;;;;346592;154;859167;-61
2021/08/09 04:58:02;;;;;;;12.07;8.59;;;;;;;;;;345156;152;866933;-60
2021/08/09 04:59:03;;;;;;;12.67;8.71;;;;;;;;;;344426;155;860733;-60
2021/08/09 05:00:05;;;;;;;10.76;8.09;;;;;;;;;;348438;153;859259;-60
2021/08/09 05:01:08;;;;;;;13.51;8.21;;;;;;;;;;347726;153;865938;-60
2021/08/09 05:05:43;;;;;;;9.53;7.07;;;;;;;20.79;61.73;99975.59;369714;142;881239;-60
2021/08/09 05:06:47;;;;;;;13.09;7.66;;;;;;;20.77;61.38;99986.16;360613;144;859038;-60
2021/08/09 05:07:55;;;;;;;12.41;7.99;;;;;;;20.84;61.02;99984.95;362696;145;857467;-60
2021/08/09 05:08:57;;;;;;;11.92;7.60;;;;;;;20.91;61.08;99989.89;362826;145;857656;-59
2021/08/09 05:09:59;;;;;;;11.49;7.47;;;;;;;21.00;61.56;99989.43;363000;144;857181;-60
2021/08/09 05:11:02;;;;;;;10.00;7.13;;;;;;;21.09;61.62;99988.95;362420;144;857206;-58
2021/08/09 05:12:04;;;;;;;11.31;7.46;;;;;;;21.19;61.44;99996.38;361395;145;857247;-60
2021/08/09 05:13:06;;;;;;;10.38;7.36;;;;;;;21.24;61.46;100002.30;359025;148;864971;-60
2021/08/09 05:14:08;;;;;;;9.94;7.10;;;;;;;21.31;60.70;99996.61;361700;144;857261;-62
2021/08/09 05:15:10;;;;;;;9.52;7.32;;;;;;;21.36;60.04;99996.39;362741;145;864918;-62
2021/08/09 05:16:14;;;;;;;13.67;7.82;;;;;;;21.43;60.05;99992.50;360597;145;867086;-60
2021/08/09 05:17:15;;;;;;;9.61;7.72;;;;;;;21.50;60.38;99993.01;361701;147;857408;-62
2021/08/09 05:18:17;;;;;;;9.53;7.46;;;;;;;21.56;60.79;99995.31;360270;146;865798;-61
2021/08/09 05:19:19;;;;;;;7.88;6.51;;;;;;;21.62;60.68;99994.16;361568;144;864998;-61
2021/08/09 05:20:21;;;;;;;10.64;7.45;;;;;;;21.68;60.28;99992.98;362562;145;865858;-61
2021/08/09 05:21:23;;;;;;;10.39;7.06;;;;;;;21.73;59.81;99999.73;365033;147;858936;-61
2021/08/09 05:22:24;;;;;;;11.96;6.66;;;;;;;21.79;59.77;99987.16;362145;146;865762;-61
2021/08/09 05:23:26;;;;;;;9.74;7.12;;;;;;;21.84;59.74;99996.52;362930;145;866663;-59
2021/08/09 05:24:28;;;;;;;10.96;6.88;;;;;;;21.90;59.74;100000.59;354661;147;864915;-61
2021/08/09 05:25:31;;;;;;;10.20;7.23;;;;;;;21.96;59.85;99999.42;358305;148;864922;-60
2021/08/09 05:26:33;;;;;;;11.89;7.21;;;;;;;22.03;59.80;99995.52;356933;147;864889;-61
2021/08/09 05:27:35;;;;;;;10.06;6.85;;;;;;;22.07;59.00;99989.14;358726;147;858905;-63
2021/08/09 05:28:37;;;;;;;11.40;6.64;;;;;;;22.11;59.05;99988.03;358958;150;866299;-61
2021/08/09 05:29:38;;;;;;;13.16;7.39;;;;;;;22.14;58.57;99990.50;356744;147;859736;-60
2021/08/09 05:30:43;;;;;;;11.70;6.83;;;;;;;22.15;57.89;99984.28;357157;147;865789;-64
2021/08/09 05:31:45;;;;;;;13.56;6.91;;;;;;;22.16;58.22;99983.34;356810;147;857474;-61
2021/08/09 05:32:47;;;;;;;15.38;7.09;;;;;;;22.17;57.89;99979.78;359164;147;857458;-61
2021/08/09 05:33:48;;;;;;;17.99;6.74;;;;;;;;;;357020;147;857379;-61
2021/08/09 05:34:50;;;;;;;10.41;6.41;;;;;;;;;;357416;147;866762;-60
2021/08/09 05:35:51;;;;;;;16.08;6.89;;;;;;;;;;356980;147;858985;-61
2021/08/09 05:36:53;;;;;;;13.03;6.89;;;;;;;;;;358418;148;858065;-61
2021/08/09 05:37:55;;;;;;;8.89;6.48;;;;;;;;;;351102;150;857896;-61
2021/08/09 05:38:58;;;;;;;9.92;7.09;;;;;;;;;;350932;150;859108;-61
2021/08/09 05:39:59;;;;;;;10.58;6.22;;;;;;;;;;356852;147;859530;-61
2021/08/09 05:41:02;;;;;;;11.65;6.36;;;;;;;;;;355985;147;858919;-61
2021/08/09 05:42:03;;;;;;;9.29;6.61;;;;;;;;;;356377;147;859665;-60
2021/08/09 05:43:05;;;;;;;10.61;5.88;;;;;;;;;;347866;152;857284;-59
2021/08/09 05:44:06;;;;;;;8.82;6.27;;;;;;;;;;355992;147;858698;-61
2021/08/09 05:45:09;;;;;;;9.72;6.01;;;;;;;;;;356754;147;865630;-61
2021/08/09 05:46:11;;;;;;;7.78;5.87;;;;;;;;;;357768;147;858709;-63
2021/08/09 05:47:12;;;;;;;7.86;5.74;;;;;;;;;;354943;147;865654;-62
2021/08/09 05:48:14;;;;;;;8.40;5.56;;;;;;;;;;357607;147;857219;-63
2021/08/09 05:49:15;;;;;;;7.17;5.68;;;;;;;;;;359952;147;857279;-62
2021/08/09 05:50:18;;;;;;;7.50;5.51;;;;;;;;;;356018;149;857312;-62
2021/08/09 05:51:19;;;;;;;9.15;5.92;;;;;;;;;;359301;147;857289;-63
2021/08/09 05:52:21;;;;;;;6.35;5.61;;;;;;;;;;356731;147;858921;-63
2021/08/09 05:53:27;;;;;;;9.67;6.13;;;;;;;;;;357196;147;858125;-61
2021/08/09 05:54:27;;;;;;;9.85;5.78;;;;;;;;;;357555;148;858281;-61
2021/08/09 05:55:29;;;;;;;7.46;5.63;;;;;;;;;;356553;147;865058;-61
2021/08/09 05:56:31;;;;;;;6.91;5.65;;;;;;;;;;358450;148;857264;-61
2021/08/09 05:57:32;;;;;;;9.21;5.20;;;;;;;;;;359020;149;857192;-61
2021/08/09 05:58:34;;;;;;;6.11;5.36;;;;;;;;;;357815;147;859012;-60